createdAt,value
2023-01-01T00:00:30.002Z,12.94
2023-01-01T00:01:31.601Z,12.94
2023-01-01T00:02:36.993Z,12.96
2023-01-01T00:03:39.408Z,12.98
2023-01-01T00:04:40.965Z,12.95
2023-01-01T00:05:42.375Z,12.89
2023-01-01T00:06:46.304Z,12.86
2023-01-01T00:07:48.053Z,12.88
2023-01-01T00:08:49.621Z,12.88
2023-01-01T00:10:09.393Z,12.93
2023-01-01T00:11:11.650Z,12.92
2023-01-01T00:12:13.150Z,12.88
2023-01-01T00:13:15.581Z,12.84
2023-01-01T00:14:17.034Z,12.84
2023-01-01T00:15:18.514Z,12.80
2023-01-01T00:16:20.572Z,12.80
2023-01-01T00:17:23.480Z,12.72
2023-01-01T00:18:24.882Z,12.74
2023-01-01T00:19:26.375Z,12.80
2023-01-01T00:20:34.683Z,12.86
2023-01-01T00:21:36.568Z,12.90
2023-01-01T00:22:55.883Z,12.93
2023-01-01T00:23:57.896Z,12.84
2023-01-01T00:24:59.331Z,12.87
2023-01-01T00:26:01.149Z,12.79
2023-01-01T00:27:03.089Z,12.81
2023-01-01T00:28:04.679Z,12.85
2023-01-01T00:29:06.080Z,12.87
2023-01-01T00:30:08.579Z,12.88
2023-01-01T00:31:19.473Z,12.90
2023-01-01T00:32:22.995Z,12.92
2023-01-01T00:33:24.715Z,12.91
2023-01-01T00:34:26.139Z,12.84
2023-01-01T00:35:27.972Z,12.68
2023-01-01T00:36:30.316Z,12.67
2023-01-01T00:37:31.913Z,12.69
2023-01-01T00:38:33.694Z,12.73
2023-01-01T00:39:35.166Z,12.74
2023-01-01T00:40:36.831Z,12.77
2023-01-01T00:41:38.278Z,12.73
2023-01-01T00:42:41.673Z,12.75
2023-01-01T00:43:44.252Z,12.80
2023-01-01T00:44:45.681Z,12.81
2023-01-01T00:45:48.858Z,12.84
2023-01-01T00:46:50.929Z,12.86
2023-01-01T00:47:53.792Z,12.81
2023-01-01T00:48:55.228Z,12.81
2023-01-01T00:49:56.680Z,12.84
2023-01-01T00:50:58.495Z,12.87
2023-01-01T00:52:00.338Z,12.86
2023-01-01T00:53:01.839Z,12.86
2023-01-01T00:54:03.449Z,12.80
2023-01-01T00:55:05.166Z,12.72
2023-01-01T00:56:07.143Z,12.72
2023-01-01T00:57:08.611Z,12.77
2023-01-01T00:58:10.908Z,12.79
2023-01-01T00:59:12.634Z,12.78
2023-01-01T01:00:15.116Z,12.78
2023-01-01T01:01:16.929Z,12.83
2023-01-01T01:02:18.947Z,12.75
2023-01-01T01:03:30.737Z,12.76
2023-01-01T01:04:32.372Z,12.81
2023-01-01T01:05:37.015Z,12.77
2023-01-01T01:06:38.854Z,12.75
2023-01-01T01:07:41.050Z,12.68
2023-01-01T01:08:45.204Z,12.69
2023-01-01T01:09:46.653Z,12.67
2023-01-01T01:10:48.105Z,12.72
2023-01-01T01:11:49.970Z,12.61
2023-01-01T01:12:52.941Z,12.62
2023-01-01T01:13:55.824Z,12.59
2023-01-01T01:14:57.246Z,12.56
2023-01-01T01:15:59.026Z,12.55
2023-01-01T01:17:00.853Z,12.56
2023-01-01T01:18:02.600Z,12.64
2023-01-01T01:19:05.529Z,12.62
2023-01-01T01:20:07.595Z,12.60
2023-01-01T01:21:09.141Z,12.61
2023-01-01T01:22:10.889Z,12.62
2023-01-01T01:23:12.332Z,12.63
2023-01-01T01:24:13.831Z,12.59
2023-01-01T01:25:15.258Z,12.64
2023-01-01T01:26:36.950Z,12.69
2023-01-01T01:27:38.454Z,12.72
2023-01-01T01:28:47.104Z,12.66
2023-01-01T01:29:50.417Z,12.68
2023-01-01T01:30:51.913Z,12.69
2023-01-01T01:31:53.701Z,12.73
2023-01-01T01:32:55.136Z,12.66
2023-01-01T01:33:57.476Z,12.63
2023-01-01T01:34:58.918Z,12.67
2023-01-01T01:36:00.601Z,12.70
2023-01-01T01:37:02.376Z,12.73
2023-01-01T01:38:03.851Z,12.74
2023-01-01T01:39:05.275Z,12.70
2023-01-01T01:40:07.775Z,12.68
2023-01-01T01:41:20.525Z,12.68
2023-01-01T01:42:29.068Z,12.68
2023-01-01T01:43:33.243Z,12.69
2023-01-01T01:44:49.883Z,12.67
2023-01-01T01:45:56.548Z,12.68
2023-01-01T01:47:00.431Z,12.69
2023-01-01T01:48:02.537Z,12.67
2023-01-01T01:49:16.318Z,12.67
2023-01-01T01:50:24.937Z,12.66
2023-01-01T01:51:35.035Z,12.63
2023-01-01T01:52:40.148Z,12.64
2023-01-01T01:53:46.337Z,12.64
2023-01-01T01:54:47.881Z,12.64
2023-01-01T01:56:01.274Z,12.64
2023-01-01T01:57:07.885Z,12.61
2023-01-01T01:58:11.599Z,12.53
2023-01-01T01:59:14.100Z,12.56
2023-01-01T02:00:16.878Z,12.55
2023-01-01T02:01:18.802Z,12.56
2023-01-01T02:02:30.528Z,12.54
2023-01-01T02:03:59.105Z,12.52
2023-01-01T02:05:01.319Z,12.49
2023-01-01T02:06:03.901Z,12.51
2023-01-01T02:07:05.373Z,12.44
2023-01-01T02:08:08.552Z,12.42
2023-01-01T02:09:10.283Z,12.43
2023-01-01T02:10:11.771Z,12.46
2023-01-01T02:11:16.145Z,12.46
2023-01-01T02:12:22.095Z,12.41
2023-01-01T02:13:23.580Z,12.30
2023-01-01T02:14:25.209Z,12.21
2023-01-01T02:15:31.462Z,12.26
2023-01-01T02:16:43.615Z,12.33
2023-01-01T02:18:11.458Z,12.33
2023-01-01T02:19:37.533Z,12.36
2023-01-01T02:20:54.168Z,12.40
2023-01-01T02:22:14.703Z,12.44
2023-01-01T02:23:16.072Z,12.48
2023-01-01T02:24:42.027Z,12.53
2023-01-01T02:25:57.717Z,12.52
2023-01-01T02:27:05.421Z,12.39
2023-01-01T02:28:18.230Z,12.39
2023-01-01T02:29:25.709Z,12.32
2023-01-01T02:30:30.853Z,12.23
2023-01-01T02:31:38.321Z,12.22
2023-01-01T02:33:03.199Z,12.29
2023-01-01T02:34:09.194Z,12.28
2023-01-01T02:35:32.833Z,12.32
2023-01-01T02:36:39.682Z,12.37
2023-01-01T02:37:41.584Z,12.32
2023-01-01T02:38:51.111Z,12.25
2023-01-01T02:39:56.541Z,12.32
2023-01-01T02:41:02.664Z,12.32
2023-01-01T02:42:06.941Z,12.27
2023-01-01T02:43:08.850Z,12.33
2023-01-01T02:44:12.035Z,12.38
2023-01-01T02:45:13.477Z,12.37
2023-01-01T02:47:20.477Z,12.45
2023-01-01T02:48:43.550Z,12.44
2023-01-01T02:49:54.755Z,12.40
2023-01-01T02:50:59.683Z,12.44
2023-01-01T02:52:32.105Z,12.45
2023-01-01T02:53:37.465Z,12.46
2023-01-01T02:54:38.876Z,12.46
2023-01-01T02:55:59.002Z,12.41
2023-01-01T02:57:28.380Z,12.42
2023-01-01T02:59:16.008Z,12.41
2023-01-01T03:00:19.764Z,12.40
2023-01-01T03:01:39.610Z,12.41
2023-01-01T03:03:17.730Z,12.39
2023-01-01T03:04:29.914Z,12.42
2023-01-01T03:05:36.361Z,12.42
2023-01-01T03:06:52.048Z,12.36
2023-01-01T03:08:07.150Z,12.38
2023-01-01T03:09:22.880Z,12.38
2023-01-01T03:10:45.166Z,12.35
2023-01-01T03:11:51.257Z,12.34
2023-01-01T03:13:01.814Z,12.24
2023-01-01T03:14:16.447Z,12.28
2023-01-01T03:15:28.691Z,12.34
2023-01-01T03:16:51.888Z,12.38
2023-01-01T03:18:02.814Z,12.27
2023-01-01T03:19:24.920Z,12.26
2023-01-01T03:20:29.917Z,12.23
2023-01-01T03:21:31.575Z,12.24
2023-01-01T03:23:49.901Z,12.29
2023-01-01T03:25:04.339Z,12.31
2023-01-01T03:26:12.063Z,12.28
2023-01-01T03:27:25.445Z,12.29
2023-01-01T03:28:35.492Z,12.22
2023-01-01T03:29:40.675Z,12.10
2023-01-01T03:30:45.713Z,12.02
2023-01-01T03:31:50.568Z,12.05
2023-01-01T03:33:08.290Z,12.11
2023-01-01T03:34:16.347Z,12.18
2023-01-01T03:35:19.582Z,12.20
2023-01-01T03:36:36.100Z,12.12
2023-01-01T03:37:37.912Z,12.14
2023-01-01T03:38:43.932Z,12.15
2023-01-01T03:39:50.921Z,12.10
2023-01-01T03:40:58.190Z,12.12
2023-01-01T03:42:25.198Z,12.13
2023-01-01T03:43:53.228Z,12.16
2023-01-01T03:45:04.131Z,12.13
2023-01-01T03:46:08.624Z,12.15
2023-01-01T03:47:10.790Z,12.13
2023-01-01T03:48:12.420Z,12.18
2023-01-01T03:49:15.516Z,12.19
2023-01-01T03:50:17.889Z,12.15
2023-01-01T03:51:27.333Z,12.19
2023-01-01T03:52:49.295Z,12.25
2023-01-01T03:53:54.654Z,12.24
2023-01-01T03:55:19.517Z,12.19
2023-01-01T03:56:45.520Z,12.13
2023-01-01T03:57:56.175Z,12.07
2023-01-01T03:59:12.941Z,11.99
2023-01-01T04:00:18.325Z,12.06
2023-01-01T04:01:27.258Z,12.04
2023-01-01T04:02:32.096Z,12.09
2023-01-01T04:03:34.755Z,12.14
2023-01-01T04:04:36.866Z,12.15
2023-01-01T04:05:41.360Z,12.19
2023-01-01T04:06:42.856Z,12.21
2023-01-01T04:08:46.908Z,12.12
2023-01-01T04:09:50.403Z,12.05
2023-01-01T04:10:56.904Z,12.08
2023-01-01T04:12:01.967Z,12.13
2023-01-01T04:13:06.438Z,12.00
2023-01-01T04:14:07.926Z,11.99
2023-01-01T04:15:09.714Z,11.93
2023-01-01T04:16:11.355Z,11.97
2023-01-01T04:17:13.279Z,12.02
2023-01-01T04:18:15.053Z,12.07
2023-01-01T04:19:16.466Z,12.11
2023-01-01T04:20:18.619Z,12.10
2023-01-01T04:21:20.096Z,12.14
2023-01-01T04:22:23.265Z,12.17
2023-01-01T04:23:25.151Z,12.18
2023-01-01T04:24:26.613Z,12.19
2023-01-01T04:25:29.312Z,12.19
2023-01-01T04:26:30.771Z,12.19
2023-01-01T04:27:32.569Z,12.18
2023-01-01T04:28:33.969Z,12.06
2023-01-01T04:29:36.278Z,12.09
2023-01-01T04:31:38.466Z,12.08
2023-01-01T04:32:40.975Z,12.11
2023-01-01T04:33:42.382Z,12.15
2023-01-01T04:34:43.904Z,12.15
2023-01-01T04:35:45.311Z,12.16
2023-01-01T04:36:46.764Z,12.17
2023-01-01T04:37:48.225Z,12.16
2023-01-01T04:38:49.765Z,12.20
2023-01-01T04:39:51.247Z,12.20
2023-01-01T04:41:00.035Z,12.22
2023-01-01T04:42:01.483Z,12.21
2023-01-01T04:43:03.320Z,12.23
2023-01-01T04:44:04.995Z,12.19
2023-01-01T04:45:07.243Z,12.14
2023-01-01T04:46:09.311Z,12.16
2023-01-01T04:47:11.140Z,12.18
2023-01-01T04:48:12.905Z,12.19
2023-01-01T04:49:14.330Z,12.22
2023-01-01T04:50:16.050Z,12.18
2023-01-01T04:51:19.672Z,12.17
2023-01-01T04:52:22.047Z,12.18
2023-01-01T04:53:23.863Z,12.19
2023-01-01T04:54:25.622Z,12.18
2023-01-01T04:55:27.215Z,12.19
2023-01-01T04:56:29.256Z,12.16
2023-01-01T04:57:31.533Z,12.20
2023-01-01T04:58:40.072Z,12.16
2023-01-01T04:59:41.978Z,12.18
2023-01-01T05:00:43.767Z,12.17
2023-01-01T05:01:45.413Z,12.16
2023-01-01T05:02:47.341Z,12.15
2023-01-01T05:03:49.748Z,12.16
2023-01-01T05:04:51.198Z,12.18
2023-01-01T05:06:03.321Z,12.17
2023-01-01T05:07:04.732Z,12.14
2023-01-01T05:08:06.571Z,12.17
2023-01-01T05:09:10.476Z,12.20
2023-01-01T05:10:11.923Z,12.20
2023-01-01T05:11:21.830Z,12.18
2023-01-01T05:12:23.397Z,12.20
2023-01-01T05:13:25.159Z,12.21
2023-01-01T05:14:26.575Z,12.19
2023-01-01T05:15:28.002Z,12.16
2023-01-01T05:16:32.058Z,12.16
2023-01-01T05:17:33.813Z,12.15
2023-01-01T05:18:36.576Z,12.17
2023-01-01T05:19:38.031Z,12.18
2023-01-01T05:20:39.506Z,12.18
2023-01-01T05:21:41.052Z,12.21
2023-01-01T05:22:42.810Z,12.22
2023-01-01T05:23:44.647Z,12.25
2023-01-01T05:24:46.179Z,12.25
2023-01-01T05:25:47.593Z,12.25
2023-01-01T05:26:49.191Z,12.25
2023-01-01T05:27:51.485Z,12.25
2023-01-01T05:28:52.923Z,12.25
2023-01-01T05:29:54.346Z,12.25
2023-01-01T05:30:55.751Z,12.25
2023-01-01T05:31:57.266Z,12.26
2023-01-01T05:32:59.078Z,12.25
2023-01-01T05:35:02.056Z,12.22
2023-01-01T05:36:05.191Z,12.21
2023-01-01T05:37:06.920Z,12.16
2023-01-01T05:38:08.356Z,12.09
2023-01-01T05:39:12.463Z,12.02
2023-01-01T05:40:13.923Z,11.98
2023-01-01T05:41:16.772Z,11.94
2023-01-01T05:42:18.904Z,11.93
2023-01-01T05:43:20.359Z,11.93
2023-01-01T05:44:21.788Z,11.91
2023-01-01T05:45:23.306Z,11.89
2023-01-01T05:46:25.406Z,11.89
2023-01-01T05:47:29.995Z,11.90
2023-01-01T05:48:32.500Z,11.90
2023-01-01T05:49:36.382Z,11.89
2023-01-01T05:50:37.999Z,11.88
2023-01-01T05:52:40.854Z,11.92
2023-01-01T05:53:44.462Z,11.91
2023-01-01T05:54:45.922Z,11.85
2023-01-01T05:55:53.194Z,11.84
2023-01-01T05:56:54.668Z,11.91
2023-01-01T05:57:56.103Z,11.87
2023-01-01T05:58:57.661Z,11.82
2023-01-01T05:59:59.079Z,11.84
2023-01-01T06:01:33.363Z,11.86
2023-01-01T06:02:35.263Z,11.89
2023-01-01T06:03:37.319Z,11.90
2023-01-01T06:04:38.800Z,11.89
2023-01-01T06:05:40.253Z,11.84
2023-01-01T06:06:42.109Z,11.86
2023-01-01T06:07:48.307Z,11.83
2023-01-01T06:08:55.657Z,11.69
2023-01-01T06:09:57.082Z,11.58
2023-01-01T06:11:04.172Z,11.56
2023-01-01T06:12:06.489Z,11.56
2023-01-01T06:13:13.191Z,11.52
2023-01-01T06:14:15.065Z,11.59
2023-01-01T06:15:16.605Z,11.58
2023-01-01T06:16:18.056Z,11.53
2023-01-01T06:17:19.554Z,11.56
2023-01-01T06:18:21.033Z,11.61
2023-01-01T06:19:22.546Z,11.64
2023-01-01T06:20:24.395Z,11.64
2023-01-01T06:21:27.701Z,11.63
2023-01-01T06:22:29.129Z,11.64
2023-01-01T06:23:30.553Z,11.65
2023-01-01T06:24:37.115Z,11.67
2023-01-01T06:25:40.457Z,11.66
2023-01-01T06:26:42.250Z,11.60
2023-01-01T06:27:43.667Z,11.59
2023-01-01T06:28:46.808Z,11.61
2023-01-01T06:29:48.273Z,11.65
2023-01-01T06:30:49.756Z,11.57
2023-01-01T06:31:51.537Z,11.54
2023-01-01T06:32:53.595Z,11.49
2023-01-01T06:33:55.358Z,11.39
2023-01-01T06:34:56.849Z,11.34
2023-01-01T06:35:58.620Z,11.32
2023-01-01T06:37:06.467Z,11.34
2023-01-01T06:38:08.514Z,11.30
2023-01-01T06:39:09.951Z,11.28
2023-01-01T06:40:11.477Z,11.25
2023-01-01T06:41:16.465Z,11.24
2023-01-01T06:42:17.860Z,11.28
2023-01-01T06:43:19.252Z,11.29
2023-01-01T06:44:20.652Z,11.34
2023-01-01T06:45:22.211Z,11.43
2023-01-01T06:46:30.772Z,11.45
2023-01-01T06:47:35.978Z,11.42
2023-01-01T06:48:37.385Z,11.44
2023-01-01T06:49:38.788Z,11.49
2023-01-01T06:50:40.177Z,11.50
2023-01-01T06:51:43.739Z,11.51
2023-01-01T06:52:47.146Z,11.45
2023-01-01T06:53:49.753Z,11.43
2023-01-01T06:54:51.201Z,11.45
2023-01-01T06:55:57.182Z,11.43
2023-01-01T06:56:59.318Z,11.38
2023-01-01T06:58:00.710Z,11.41
2023-01-01T06:59:02.507Z,11.45
2023-01-01T07:00:04.627Z,11.49
2023-01-01T07:01:21.205Z,11.46
2023-01-01T07:02:22.902Z,11.52
2023-01-01T07:03:24.450Z,11.51
2023-01-01T07:04:25.937Z,11.46
2023-01-01T07:05:27.333Z,11.33
2023-01-01T07:06:31.375Z,11.27
2023-01-01T07:07:35.976Z,11.33
2023-01-01T07:08:37.719Z,11.36
2023-01-01T07:09:39.153Z,11.35
2023-01-01T07:10:40.589Z,11.41
2023-01-01T07:11:42.376Z,11.39
2023-01-01T07:12:43.820Z,11.34
2023-01-01T07:13:45.575Z,11.30
2023-01-01T07:14:46.986Z,11.32
2023-01-01T07:15:48.442Z,11.34
2023-01-01T07:16:50.216Z,11.31
2023-01-01T07:17:51.633Z,11.27
2023-01-01T07:18:53.566Z,11.31
2023-01-01T07:19:54.983Z,11.38
2023-01-01T07:21:03.298Z,11.37
2023-01-01T07:22:05.115Z,11.35
2023-01-01T07:23:06.571Z,11.34
2023-01-01T07:24:10.446Z,11.33
2023-01-01T07:25:14.759Z,11.34
2023-01-01T07:26:16.265Z,11.32
2023-01-01T07:27:18.040Z,11.39
2023-01-01T07:28:20.467Z,11.44
2023-01-01T07:29:21.873Z,11.46
2023-01-01T07:30:23.285Z,11.46
2023-01-01T07:31:25.234Z,11.50
2023-01-01T07:32:26.987Z,11.46
2023-01-01T07:33:28.415Z,11.53
2023-01-01T07:34:29.831Z,11.54
2023-01-01T07:35:31.274Z,11.55
2023-01-01T07:36:33.031Z,11.59
2023-01-01T07:37:34.524Z,11.59
2023-01-01T07:38:35.938Z,11.57
2023-01-01T07:39:37.334Z,11.60
2023-01-01T07:40:39.125Z,11.56
2023-01-01T07:41:40.904Z,11.64
2023-01-01T07:42:42.313Z,11.69
2023-01-01T07:43:43.752Z,11.63
2023-01-01T07:44:45.158Z,11.59
2023-01-01T07:45:46.596Z,11.59
2023-01-01T07:46:48.489Z,11.65
2023-01-01T07:47:55.401Z,11.63
2023-01-01T07:48:57.111Z,11.63
2023-01-01T07:49:58.860Z,11.62
2023-01-01T07:51:00.324Z,11.62
2023-01-01T07:52:02.110Z,11.47
2023-01-01T07:53:04.087Z,11.50
2023-01-01T07:54:07.441Z,11.49
2023-01-01T07:55:13.558Z,11.50
2023-01-01T07:56:15.103Z,11.45
2023-01-01T07:57:16.877Z,11.52
2023-01-01T07:58:18.312Z,11.63
2023-01-01T07:59:20.670Z,11.69
2023-01-01T08:00:22.888Z,11.77
2023-01-01T08:01:24.723Z,11.86
2023-01-01T08:02:26.366Z,11.91
2023-01-01T08:03:27.938Z,11.98
2023-01-01T08:04:29.459Z,11.94
2023-01-01T08:05:31.037Z,11.99
2023-01-01T08:06:32.783Z,12.04
2023-01-01T08:07:34.429Z,12.04
2023-01-01T08:08:36.118Z,12.04
2023-01-01T08:09:37.534Z,11.97
2023-01-01T08:10:39.026Z,12.03
2023-01-01T08:11:40.808Z,12.02
2023-01-01T08:12:42.690Z,12.00
2023-01-01T08:13:44.166Z,12.09
2023-01-01T08:14:45.625Z,12.06
2023-01-01T08:15:47.078Z,12.13
2023-01-01T08:16:48.846Z,12.23
2023-01-01T08:17:50.311Z,12.17
2023-01-01T08:18:51.757Z,12.17
2023-01-01T08:19:53.213Z,12.21
2023-01-01T08:20:55.248Z,12.26
2023-01-01T08:21:56.987Z,12.24
2023-01-01T08:23:04.616Z,12.16
2023-01-01T08:24:08.513Z,12.23
2023-01-01T08:25:09.940Z,12.29
2023-01-01T08:26:16.996Z,12.34
2023-01-01T08:27:18.481Z,12.36
2023-01-01T08:28:20.100Z,12.27
2023-01-01T08:29:22.121Z,12.31
2023-01-01T08:30:23.637Z,12.39
2023-01-01T08:31:26.135Z,12.49
2023-01-01T08:32:27.640Z,12.41
2023-01-01T08:33:29.467Z,12.45
2023-01-01T08:34:30.927Z,12.53
2023-01-01T08:35:32.942Z,12.56
2023-01-01T08:36:35.206Z,12.49
2023-01-01T08:37:36.662Z,12.56
2023-01-01T08:38:38.119Z,12.58
2023-01-01T08:39:40.065Z,12.58
2023-01-01T08:40:41.959Z,12.56
2023-01-01T08:41:43.437Z,12.51
2023-01-01T08:42:44.884Z,12.47
2023-01-01T08:43:46.315Z,12.51
2023-01-01T08:44:47.842Z,12.61
2023-01-01T08:45:49.737Z,12.71
2023-01-01T08:46:52.914Z,12.74
2023-01-01T08:47:54.747Z,12.73
2023-01-01T08:48:56.189Z,12.78
2023-01-01T08:49:57.832Z,12.71
2023-01-01T08:51:01.688Z,12.70
2023-01-01T08:52:03.205Z,12.76
2023-01-01T08:53:04.636Z,12.75
2023-01-01T08:54:06.275Z,12.76
2023-01-01T08:55:08.071Z,12.69
2023-01-01T08:56:11.343Z,12.72
2023-01-01T08:57:13.211Z,12.75
2023-01-01T08:58:14.621Z,12.76
2023-01-01T08:59:16.038Z,12.80
2023-01-01T09:00:18.085Z,12.83
2023-01-01T09:01:22.524Z,12.92
2023-01-01T09:02:24.261Z,12.91
2023-01-01T09:03:26.436Z,12.93
2023-01-01T09:04:28.552Z,12.99
2023-01-01T09:05:30.032Z,12.97
2023-01-01T09:06:31.793Z,12.99
2023-01-01T09:07:33.228Z,12.96
2023-01-01T09:08:34.687Z,12.92
2023-01-01T09:09:36.194Z,12.99
2023-01-01T09:10:38.442Z,12.94
2023-01-01T09:11:40.091Z,12.99
2023-01-01T09:12:41.550Z,12.98
2023-01-01T09:13:42.991Z,12.97
2023-01-01T09:14:47.889Z,12.99
2023-01-01T09:15:51.848Z,12.99
2023-01-01T09:16:53.367Z,13.00
2023-01-01T09:17:54.807Z,13.04
2023-01-01T09:18:56.392Z,13.11
2023-01-01T09:19:57.826Z,13.16
2023-01-01T09:20:59.596Z,13.14
2023-01-01T09:22:01.029Z,12.99
2023-01-01T09:23:05.945Z,13.02
2023-01-01T09:24:08.009Z,13.11
2023-01-01T09:25:09.482Z,13.18
2023-01-01T09:26:11.306Z,13.22
2023-01-01T09:27:12.750Z,13.30
2023-01-01T09:28:14.615Z,13.33
2023-01-01T09:29:20.755Z,13.32
2023-01-01T09:30:22.670Z,13.40
2023-01-01T09:31:24.422Z,13.47
2023-01-01T09:32:25.977Z,13.51
2023-01-01T09:33:28.173Z,13.57
2023-01-01T09:34:29.579Z,13.61
2023-01-01T09:35:31.697Z,13.55
2023-01-01T09:36:33.929Z,13.56
2023-01-01T09:37:35.344Z,13.57
2023-01-01T09:38:36.774Z,13.49
2023-01-01T09:39:38.531Z,13.51
2023-01-01T09:41:12.404Z,13.62
2023-01-01T09:42:42.540Z,13.67
2023-01-01T09:44:08.466Z,13.74
2023-01-01T09:45:31.760Z,13.72
2023-01-01T09:46:33.393Z,13.70
2023-01-01T09:47:46.076Z,13.71
2023-01-01T09:49:03.389Z,13.78
2023-01-01T09:50:23.457Z,13.86
2023-01-01T09:51:28.354Z,13.92
2023-01-01T09:52:43.835Z,13.88
2023-01-01T09:54:06.457Z,13.77
2023-01-01T09:55:49.279Z,13.83
2023-01-01T09:56:57.267Z,13.74
2023-01-01T09:57:59.021Z,13.77
2023-01-01T09:59:00.422Z,13.76
2023-01-01T10:00:02.283Z,13.69
2023-01-01T10:01:14.099Z,13.73
2023-01-01T10:02:36.851Z,13.70
2023-01-01T10:03:49.008Z,13.74
2023-01-01T10:04:53.753Z,13.78
2023-01-01T10:06:07.757Z,13.79
2023-01-01T10:07:19.950Z,13.82
2023-01-01T10:08:53.560Z,13.81
2023-01-01T10:10:10.108Z,13.93
2023-01-01T10:11:14.614Z,13.93
2023-01-01T10:12:25.305Z,13.98
2023-01-01T10:13:45.832Z,13.95
2023-01-01T10:15:00.706Z,13.93
2023-01-01T10:16:18.001Z,13.87
2023-01-01T10:17:48.365Z,13.68
2023-01-01T10:18:53.848Z,13.67
2023-01-01T10:20:01.052Z,13.73
2023-01-01T10:21:21.848Z,13.87
2023-01-01T10:22:28.255Z,13.96
2023-01-01T10:23:39.577Z,13.99
2023-01-01T10:24:43.184Z,13.99
2023-01-01T10:25:45.054Z,14.00
2023-01-01T10:26:48.006Z,14.03
2023-01-01T10:28:00.071Z,13.89
2023-01-01T10:29:16.907Z,13.92
2023-01-01T10:30:21.231Z,13.94
2023-01-01T10:31:42.567Z,13.94
2023-01-01T10:32:48.066Z,13.87
2023-01-01T10:33:49.849Z,13.93
2023-01-01T10:34:51.347Z,13.88
2023-01-01T10:35:58.302Z,13.89
2023-01-01T10:37:00.831Z,13.93
2023-01-01T10:38:04.388Z,13.91
2023-01-01T10:39:06.176Z,13.87
2023-01-01T10:40:33.976Z,13.88
2023-01-01T10:41:35.409Z,13.94
2023-01-01T10:42:36.823Z,14.01
2023-01-01T10:43:38.828Z,14.04
2023-01-01T10:44:41.111Z,14.08
2023-01-01T10:45:51.612Z,14.15
2023-01-01T10:46:58.381Z,14.19
2023-01-01T10:48:13.851Z,14.19
2023-01-01T10:49:16.746Z,14.18
2023-01-01T10:50:18.069Z,14.24
2023-01-01T10:51:24.788Z,14.23
2023-01-01T10:52:35.585Z,14.24
2023-01-01T10:53:43.074Z,14.28
2023-01-01T10:54:44.603Z,14.27
2023-01-01T10:55:50.961Z,14.30
2023-01-01T10:56:52.406Z,14.32
2023-01-01T10:57:54.233Z,14.34
2023-01-01T10:58:58.992Z,14.37
2023-01-01T11:00:34.152Z,14.37
2023-01-01T11:01:35.689Z,14.35
2023-01-01T11:02:37.417Z,14.37
2023-01-01T11:03:54.914Z,14.41
2023-01-01T11:05:21.645Z,14.44
2023-01-01T11:06:33.234Z,14.35
2023-01-01T11:07:34.800Z,14.27
2023-01-01T11:08:40.020Z,14.28
2023-01-01T11:09:52.173Z,14.35
2023-01-01T11:11:04.124Z,14.40
2023-01-01T11:12:24.576Z,14.40
2023-01-01T11:13:32.399Z,14.44
2023-01-01T11:14:44.772Z,14.45
2023-01-01T11:15:46.520Z,14.49
2023-01-01T11:16:49.466Z,14.54
2023-01-01T11:17:51.165Z,14.50
2023-01-01T11:19:00.684Z,14.47
2023-01-01T11:20:04.993Z,14.47
2023-01-01T11:21:07.756Z,14.47
2023-01-01T11:22:40.987Z,14.48
2023-01-01T11:23:42.740Z,14.49
2023-01-01T11:25:00.018Z,14.49
2023-01-01T11:26:03.597Z,14.46
2023-01-01T11:27:13.872Z,14.44
2023-01-01T11:28:21.691Z,14.46
2023-01-01T11:29:26.449Z,14.43
2023-01-01T11:30:29.617Z,14.47
2023-01-01T11:31:37.319Z,14.49
2023-01-01T11:32:39.162Z,14.55
2023-01-01T11:33:48.043Z,14.46
2023-01-01T11:34:58.896Z,14.45
2023-01-01T11:36:00.904Z,14.33
2023-01-01T11:37:14.660Z,14.24
2023-01-01T11:38:27.543Z,14.27
2023-01-01T11:39:32.895Z,14.43
2023-01-01T11:40:38.577Z,14.49
2023-01-01T11:41:49.453Z,14.37
2023-01-01T11:42:58.243Z,14.36
2023-01-01T11:44:00.805Z,14.35
2023-01-01T11:45:14.245Z,14.27
2023-01-01T11:46:23.909Z,14.34
2023-01-01T11:47:33.946Z,14.30
2023-01-01T11:48:37.132Z,14.28
2023-01-01T11:49:38.669Z,14.31
2023-01-01T11:50:53.651Z,14.31
2023-01-01T11:51:56.039Z,14.41
2023-01-01T11:53:16.484Z,14.49
2023-01-01T11:54:36.291Z,14.60
2023-01-01T11:55:43.143Z,14.57
2023-01-01T11:56:45.267Z,14.58
2023-01-01T11:57:59.443Z,14.65
2023-01-01T11:59:13.239Z,14.64
2023-01-01T12:00:16.582Z,14.65
2023-01-01T12:01:41.481Z,14.66
2023-01-01T12:03:00.711Z,14.51
2023-01-01T12:04:06.409Z,14.62
2023-01-01T12:05:20.505Z,14.71
2023-01-01T12:06:34.219Z,14.70
2023-01-01T12:07:39.541Z,14.69
2023-01-01T12:08:55.451Z,14.69
2023-01-01T12:10:09.444Z,14.74
2023-01-01T12:11:21.205Z,14.69
2023-01-01T12:13:03.513Z,14.66
2023-01-01T12:14:19.713Z,14.67
2023-01-01T12:15:47.191Z,14.72
2023-01-01T12:17:27.286Z,14.76
2023-01-01T12:18:32.511Z,14.79
2023-01-01T12:19:56.885Z,14.81
2023-01-01T12:21:08.600Z,14.80
2023-01-01T12:22:16.450Z,14.74
2023-01-01T12:23:18.754Z,14.79
2023-01-01T12:24:21.373Z,14.74
2023-01-01T12:25:23.043Z,14.79
2023-01-01T12:26:40.385Z,14.82
2023-01-01T12:28:08.365Z,14.84
2023-01-01T12:29:46.589Z,14.88
2023-01-01T12:31:08.957Z,14.88
2023-01-01T12:32:30.181Z,14.97
2023-01-01T12:33:41.938Z,14.96
2023-01-01T12:35:03.508Z,14.99
2023-01-01T12:36:22.492Z,14.91
2023-01-01T12:38:01.820Z,14.91
2023-01-01T12:39:28.295Z,14.96
2023-01-01T12:40:37.687Z,15.04
2023-01-01T12:42:03.422Z,15.09
2023-01-01T12:43:12.388Z,15.06
2023-01-01T12:44:46.943Z,15.00
2023-01-01T12:46:10.255Z,15.09
2023-01-01T12:47:26.232Z,15.16
2023-01-01T12:49:01.649Z,15.10
2023-01-01T12:50:07.942Z,15.02
2023-01-01T12:51:26.922Z,14.90
2023-01-01T12:52:49.959Z,14.87
2023-01-01T12:54:14.853Z,14.81
2023-01-01T12:55:52.357Z,14.83
2023-01-01T12:57:15.040Z,14.83
2023-01-01T12:58:24.274Z,14.90
2023-01-01T12:59:36.438Z,14.90
2023-01-01T13:00:40.909Z,14.90
2023-01-01T13:01:42.957Z,15.00
2023-01-01T13:02:55.509Z,15.00
2023-01-01T13:04:00.637Z,15.00
2023-01-01T13:05:13.765Z,14.98
2023-01-01T13:06:17.802Z,14.86
2023-01-01T13:07:30.728Z,14.80
2023-01-01T13:08:34.636Z,14.80
2023-01-01T13:09:39.587Z,14.78
2023-01-01T13:10:45.459Z,14.77
2023-01-01T13:11:53.591Z,14.80
2023-01-01T13:12:56.181Z,14.78
2023-01-01T13:13:57.710Z,14.76
2023-01-01T13:14:59.490Z,14.72
2023-01-01T13:16:01.222Z,14.77
2023-01-01T13:17:02.736Z,14.69
2023-01-01T13:18:25.189Z,14.64
2023-01-01T13:19:32.730Z,14.66
2023-01-01T13:20:39.031Z,14.71
2023-01-01T13:21:40.478Z,14.71
2023-01-01T13:22:43.143Z,14.72
2023-01-01T13:23:45.922Z,14.72
2023-01-01T13:25:17.987Z,14.72
2023-01-01T13:26:22.841Z,14.77
2023-01-01T13:27:56.077Z,14.82
2023-01-01T13:28:57.472Z,14.77
2023-01-01T13:29:59.239Z,14.81
2023-01-01T13:31:00.712Z,14.82
2023-01-01T13:32:05.163Z,14.78
2023-01-01T13:33:29.707Z,14.84
2023-01-01T13:34:31.468Z,14.82
2023-01-01T13:35:33.339Z,14.78
2023-01-01T13:36:34.752Z,14.79
2023-01-01T13:37:43.892Z,14.80
2023-01-01T13:38:51.424Z,14.89
2023-01-01T13:40:01.491Z,14.96
2023-01-01T13:41:03.029Z,14.91
2023-01-01T13:42:24.419Z,14.90
2023-01-01T13:43:27.694Z,14.93
2023-01-01T13:44:29.257Z,14.90
2023-01-01T13:46:10.916Z,14.85
2023-01-01T13:47:38.540Z,14.85
2023-01-01T13:49:12.205Z,14.97
2023-01-01T13:50:56.933Z,14.92
2023-01-01T13:52:16.729Z,14.91
2023-01-01T13:53:37.331Z,14.94
2023-01-01T13:54:40.613Z,14.95
2023-01-01T13:56:10.912Z,14.90
2023-01-01T13:57:41.599Z,14.88
2023-01-01T13:59:04.491Z,14.84
2023-01-01T14:00:12.434Z,14.82
2023-01-01T14:01:27.712Z,14.80
2023-01-01T14:02:35.627Z,14.83
2023-01-01T14:03:58.608Z,14.82
2023-01-01T14:05:22.960Z,14.90
2023-01-01T14:06:42.066Z,14.91
2023-01-01T14:07:51.593Z,14.94
2023-01-01T14:09:06.702Z,14.97
2023-01-01T14:10:32.298Z,15.10
2023-01-01T14:11:33.721Z,15.11
2023-01-01T14:12:38.532Z,15.10
2023-01-01T14:13:41.076Z,15.10
2023-01-01T14:14:42.548Z,15.05
2023-01-01T14:16:02.967Z,15.05
2023-01-01T14:17:07.312Z,15.06
2023-01-01T14:18:15.488Z,15.03
2023-01-01T14:19:17.085Z,15.08
2023-01-01T14:20:22.048Z,15.05
2023-01-01T14:21:26.878Z,15.11
2023-01-01T14:22:28.319Z,15.11
2023-01-01T14:23:34.520Z,15.17
2023-01-01T14:24:43.159Z,15.06
2023-01-01T14:25:45.965Z,15.05